sensor_id;sensor_type;location;lat;lon;timestamp;pressure;altitude;pressure_sealevel;temperature;humidity
65760;BME280;52496;51.082;5.066;2024-02-23T00:00:59;98927.94;;;5.57;100.00
65760;BME280;52496;51.082;5.066;2024-02-23T00:03:29;98923.66;;;5.56;100.00
65760;BME280;52496;51.082;5.066;2024-02-23T00:06:00;98922.22;;;5.53;100.00
65760;BME280;52496;51.082;5.066;2024-02-23T00:08:30;98924.69;;;5.55;100.00
65760;BME280;52496;51.082;5.066;2024-02-23T00:11:01;98929.34;;;5.52;100.00
65760;BME280;52496;51.082;5.066;2024-02-23T00:13:31;98932.22;;;5.51;100.00
65760;BME280;52496;51.082;5.066;2024-02-23T00:16:02;98927.72;;;5.51;100.00
65760;BME280;52496;51.082;5.066;2024-02-23T00:18:33;98935.47;;;5.53;100.00
65760;BME280;52496;51.082;5.066;2024-02-23T00:21:03;98950.56;;;5.52;100.00
65760;BME280;52496;51.082;5.066;2024-02-23T00:23:34;98951.59;;;5.51;100.00
65760;BME280;52496;51.082;5.066;2024-02-23T00:26:04;98944.44;;;5.52;100.00
65760;BME280;52496;51.082;5.066;2024-02-23T00:28:35;98952.19;;;5.53;100.00
65760;BME280;52496;51.082;5.066;2024-02-23T00:31:05;98959.53;;;5.51;100.00
65760;BME280;52496;51.082;5.066;2024-02-23T00:33:35;98957.88;;;5.50;100.00
65760;BME280;52496;51.082;5.066;2024-02-23T00:36:07;98963.19;;;5.50;100.00
65760;BME280;52496;51.082;5.066;2024-02-23T00:38:38;98964.22;;;5.49;100.00
65760;BME280;52496;51.082;5.066;2024-02-23T00:41:08;98966.88;;;5.49;100.00
65760;BME280;52496;51.082;5.066;2024-02-23T00:43:42;98978.91;;;5.52;100.00
65760;BME280;52496;51.082;5.066;2024-02-23T00:46:12;98970.16;;;5.51;100.00
65760;BME280;52496;51.082;5.066;2024-02-23T00:48:44;98975.84;;;5.48;100.00
65760;BME280;52496;51.082;5.066;2024-02-23T00:51:15;98990.09;;;5.47;100.00
65760;BME280;52496;51.082;5.066;2024-02-23T00:53:45;98984.78;;;5.47;100.00
65760;BME280;52496;51.082;5.066;2024-02-23T00:56:16;98991.34;;;5.45;100.00
65760;BME280;52496;51.082;5.066;2024-02-23T00:58:46;98994.16;;;5.43;100.00
65760;BME280;52496;51.082;5.066;2024-02-23T01:01:17;98995.38;;;5.41;100.00
65760;BME280;52496;51.082;5.066;2024-02-23T01:03:47;98994.94;;;5.37;100.00
65760;BME280;52496;51.082;5.066;2024-02-23T01:06:18;98997.81;;;5.36;100.00
65760;BME280;52496;51.082;5.066;2024-02-23T01:08:48;98995.34;;;5.34;100.00
65760;BME280;52496;51.082;5.066;2024-02-23T01:11:18;99010.81;;;5.31;100.00
65760;BME280;52496;51.082;5.066;2024-02-23T01:13:49;99006.72;;;5.28;100.00
65760;BME280;52496;51.082;5.066;2024-02-23T01:16:19;99015.88;;;5.25;100.00
65760;BME280;52496;51.082;5.066;2024-02-23T01:18:50;99015.06;;;5.25;100.00
65760;BME280;52496;51.082;5.066;2024-02-23T01:21:20;99017.91;;;5.23;100.00
65760;BME280;52496;51.082;5.066;2024-02-23T01:23:51;99018.28;;;5.20;100.00
65760;BME280;52496;51.082;5.066;2024-02-23T01:26:21;99020.50;;;5.17;100.00
65760;BME280;52496;51.082;5.066;2024-02-23T01:28:52;99014.78;;;5.13;100.00
65760;BME280;52496;51.082;5.066;2024-02-23T01:31:22;99022.94;;;5.12;100.00
65760;BME280;52496;51.082;5.066;2024-02-23T01:33:53;99025.75;;;5.10;100.00
65760;BME280;52496;51.082;5.066;2024-02-23T01:36:23;99023.31;;;5.09;100.00
65760;BME280;52496;51.082;5.066;2024-02-23T01:38:53;99026.34;;;5.05;100.00
65760;BME280;52496;51.082;5.066;2024-02-23T01:41:25;99026.09;;;5.00;100.00
65760;BME280;52496;51.082;5.066;2024-02-23T01:43:55;99020.16;;;4.98;100.00
65760;BME280;52496;51.082;5.066;2024-02-23T01:46:26;99014.28;;;4.96;100.00
65760;BME280;52496;51.082;5.066;2024-02-23T01:48:56;99014.66;;;4.93;100.00
65760;BME280;52496;51.082;5.066;2024-02-23T01:51:27;99021.16;;;4.91;100.00
65760;BME280;52496;51.082;5.066;2024-02-23T01:53:58;99031.31;;;4.87;100.00
65760;BME280;52496;51.082;5.066;2024-02-23T01:56:28;99036.16;;;4.83;100.00
65760;BME280;52496;51.082;5.066;2024-02-23T01:59:00;99021.50;;;4.81;100.00
65760;BME280;52496;51.082;5.066;2024-02-23T02:01:33;99015.72;;;4.77;100.00
65760;BME280;52496;51.082;5.066;2024-02-23T02:04:04;99023.06;;;4.75;100.00
65760;BME280;52496;51.082;5.066;2024-02-23T02:06:34;99012.03;;;4.72;100.00
65760;BME280;52496;51.082;5.066;2024-02-23T02:09:05;99015.69;;;4.71;100.00
65760;BME280;52496;51.082;5.066;2024-02-23T02:11:45;99021.38;;;4.68;100.00
65760;BME280;52496;51.082;5.066;2024-02-23T02:14:16;99021.56;;;4.66;100.00
65760;BME280;52496;51.082;5.066;2024-02-23T02:16:46;99019.72;;;4.67;100.00
65760;BME280;52496;51.082;5.066;2024-02-23T02:19:17;99029.94;;;4.70;100.00
65760;BME280;52496;51.082;5.066;2024-02-23T02:21:47;99011.03;;;4.73;100.00
65760;BME280;52496;51.082;5.066;2024-02-23T02:24:18;99023.69;;;4.77;100.00
65760;BME280;52496;51.082;5.066;2024-02-23T02:26:48;99034.09;;;4.79;100.00
65760;BME280;52496;51.082;5.066;2024-02-23T02:29:20;99035.28;;;4.76;100.00
65760;BME280;52496;51.082;5.066;2024-02-23T02:31:51;99031.00;;;4.75;100.00
65760;BME280;52496;51.082;5.066;2024-02-23T02:34:21;99039.78;;;4.76;100.00
65760;BME280;52496;51.082;5.066;2024-02-23T02:36:51;99046.91;;;4.75;100.00
65760;BME280;52496;51.082;5.066;2024-02-23T02:39:22;99052.81;;;4.77;100.00
65760;BME280;52496;51.082;5.066;2024-02-23T02:41:52;99035.72;;;4.80;100.00
65760;BME280;52496;51.082;5.066;2024-02-23T02:44:23;99037.97;;;4.83;100.00
65760;BME280;52496;51.082;5.066;2024-02-23T02:46:53;99047.38;;;4.86;100.00
65760;BME280;52496;51.082;5.066;2024-02-23T02:49:24;99028.03;;;4.85;100.00
65760;BME280;52496;51.082;5.066;2024-02-23T02:51:54;99031.50;;;4.86;100.00
65760;BME280;52496;51.082;5.066;2024-02-23T02:54:24;99034.97;;;4.86;100.00
65760;BME280;52496;51.082;5.066;2024-02-23T02:56:55;99026.41;;;4.84;100.00
65760;BME280;52496;51.082;5.066;2024-02-23T02:59:25;99040.63;;;4.83;100.00
65760;BME280;52496;51.082;5.066;2024-02-23T03:01:56;99042.69;;;4.81;100.00
65760;BME280;52496;51.082;5.066;2024-02-23T03:04:27;99044.31;;;4.82;100.00
65760;BME280;52496;51.082;5.066;2024-02-23T03:06:57;99033.72;;;4.82;100.00
65760;BME280;52496;51.082;5.066;2024-02-23T03:09:28;99035.53;;;4.81;100.00
65760;BME280;52496;51.082;5.066;2024-02-23T03:11:58;99038.38;;;4.80;100.00
65760;BME280;52496;51.082;5.066;2024-02-23T03:14:29;99042.69;;;4.81;100.00
65760;BME280;52496;51.082;5.066;2024-02-23T03:16:59;99037.00;;;4.84;100.00
65760;BME280;52496;51.082;5.066;2024-02-23T03:19:30;99035.38;;;4.90;100.00
65760;BME280;52496;51.082;5.066;2024-02-23T03:22:03;99026.88;;;4.94;100.00
65760;BME280;52496;51.082;5.066;2024-02-23T03:24:33;99026.50;;;4.97;100.00
65760;BME280;52496;51.082;5.066;2024-02-23T03:27:04;99030.59;;;5.00;100.00
65760;BME280;52496;51.082;5.066;2024-02-23T03:29:34;99030.22;;;5.03;100.00
65760;BME280;52496;51.082;5.066;2024-02-23T03:32:05;99029.00;;;5.05;100.00
65760;BME280;52496;51.082;5.066;2024-02-23T03:34:36;99033.06;;;5.08;100.00
65760;BME280;52496;51.082;5.066;2024-02-23T03:37:07;99027.22;;;5.13;100.00
65760;BME280;52496;51.082;5.066;2024-02-23T03:39:37;99022.34;;;5.16;100.00
65760;BME280;52496;51.082;5.066;2024-02-23T03:42:08;99022.75;;;5.20;100.00
65760;BME280;52496;51.082;5.066;2024-02-23T03:44:39;99020.38;;;5.25;100.00
65760;BME280;52496;51.082;5.066;2024-02-23T03:47:09;99023.00;;;5.25;100.00
65760;BME280;52496;51.082;5.066;2024-02-23T03:49:40;99010.78;;;5.24;100.00
65760;BME280;52496;51.082;5.066;2024-02-23T03:52:10;99027.06;;;5.21;100.00
65760;BME280;52496;51.082;5.066;2024-02-23T03:54:40;99025.63;;;5.18;100.00
65760;BME280;52496;51.082;5.066;2024-02-23T03:57:11;99024.19;;;5.16;100.00
65760;BME280;52496;51.082;5.066;2024-02-23T03:59:54;99029.47;;;5.16;100.00
65760;BME280;52496;51.082;5.066;2024-02-23T04:02:24;99032.31;;;5.14;100.00
65760;BME280;52496;51.082;5.066;2024-02-23T04:04:55;99027.84;;;5.15;100.00
65760;BME280;52496;51.082;5.066;2024-02-23T04:07:25;99036.78;;;5.14;100.00
65760;BME280;52496;51.082;5.066;2024-02-23T04:09:56;99037.41;;;5.16;100.00
65760;BME280;52496;51.082;5.066;2024-02-23T04:12:27;99038.25;;;5.16;100.00
65760;BME280;52496;51.082;5.066;2024-02-23T04:14:57;99035.19;;;5.19;100.00
65760;BME280;52496;51.082;5.066;2024-02-23T04:17:27;99036.00;;;5.20;100.00
65760;BME280;52496;51.082;5.066;2024-02-23T04:20:00;99039.47;;;5.20;100.00
65760;BME280;52496;51.082;5.066;2024-02-23T04:22:36;99041.78;;;5.23;100.00
65760;BME280;52496;51.082;5.066;2024-02-23T04:25:07;99048.69;;;5.24;100.00
65760;BME280;52496;51.082;5.066;2024-02-23T04:27:37;99046.69;;;5.26;100.00
65760;BME280;52496;51.082;5.066;2024-02-23T04:30:08;99041.81;;;5.30;100.00
65760;BME280;52496;51.082;5.066;2024-02-23T04:32:39;99038.56;;;5.35;100.00
65760;BME280;52496;51.082;5.066;2024-02-23T04:35:09;99044.28;;;5.38;100.00
65760;BME280;52496;51.082;5.066;2024-02-23T04:37:43;99044.75;;;5.42;100.00
65760;BME280;52496;51.082;5.066;2024-02-23T04:40:14;99053.28;;;5.44;100.00
65760;BME280;52496;51.082;5.066;2024-02-23T04:42:45;99049.44;;;5.46;100.00
65760;BME280;52496;51.082;5.066;2024-02-23T04:45:17;99054.19;;;5.51;100.00
65760;BME280;52496;51.082;5.066;2024-02-23T04:47:48;99059.25;;;5.52;100.00
65760;BME280;52496;51.082;5.066;2024-02-23T04:50:18;99053.78;;;5.54;100.00
65760;BME280;52496;51.082;5.066;2024-02-23T04:52:49;99054.19;;;5.58;100.00
65760;BME280;52496;51.082;5.066;2024-02-23T04:55:20;99057.47;;;5.60;100.00
65760;BME280;52496;51.082;5.066;2024-02-23T04:57:51;99050.13;;;5.62;100.00
65760;BME280;52496;51.082;5.066;2024-02-23T05:00:21;99049.94;;;5.63;100.00
65760;BME280;52496;51.082;5.066;2024-02-23T05:02:52;99048.13;;;5.64;100.00
65760;BME280;52496;51.082;5.066;2024-02-23T05:05:22;99055.03;;;5.65;100.00
65760;BME280;52496;51.082;5.066;2024-02-23T05:07:52;99051.38;;;5.66;100.00
65760;BME280;52496;51.082;5.066;2024-02-23T05:10:23;99050.38;;;5.67;100.00
65760;BME280;52496;51.082;5.066;2024-02-23T05:12:54;99053.03;;;5.67;100.00
65760;BME280;52496;51.082;5.066;2024-02-23T05:15:24;99057.94;;;5.70;100.00
65760;BME280;52496;51.082;5.066;2024-02-23T05:17:54;99059.56;;;5.71;100.00
65760;BME280;52496;51.082;5.066;2024-02-23T05:20:25;99053.22;;;5.72;100.00
65760;BME280;52496;51.082;5.066;2024-02-23T05:22:55;99038.97;;;5.73;100.00
65760;BME280;52496;51.082;5.066;2024-02-23T05:25:26;99046.94;;;5.73;100.00
65760;BME280;52496;51.082;5.066;2024-02-23T05:27:57;99048.56;;;5.74;100.00
65760;BME280;52496;51.082;5.066;2024-02-23T05:30:27;99039.59;;;5.75;100.00
65760;BME280;52496;51.082;5.066;2024-02-23T05:33:01;99044.88;;;5.75;100.00
65760;BME280;52496;51.082;5.066;2024-02-23T05:35:33;99045.53;;;5.77;100.00
65760;BME280;52496;51.082;5.066;2024-02-23T05:38:04;99050.81;;;5.77;100.00
65760;BME280;52496;51.082;5.066;2024-02-23T05:40:36;99058.78;;;5.77;100.00
65760;BME280;52496;51.082;5.066;2024-02-23T05:43:06;99050.81;;;5.77;100.00
65760;BME280;52496;51.082;5.066;2024-02-23T05:45:37;99061.03;;;5.80;100.00
65760;BME280;52496;51.082;5.066;2024-02-23T05:48:07;99061.66;;;5.82;100.00
65760;BME280;52496;51.082;5.066;2024-02-23T05:50:38;99051.06;;;5.82;100.00
65760;BME280;52496;51.082;5.066;2024-02-23T05:53:08;99055.56;;;5.82;100.00
65760;BME280;52496;51.082;5.066;2024-02-23T05:55:39;99049.22;;;5.83;100.00
65760;BME280;52496;51.082;5.066;2024-02-23T05:58:09;99063.28;;;5.83;100.00
65760;BME280;52496;51.082;5.066;2024-02-23T06:00:40;99040.25;;;5.84;100.00
65760;BME280;52496;51.082;5.066;2024-02-23T06:03:13;99037.78;;;5.82;100.00
65760;BME280;52496;51.082;5.066;2024-02-23T06:05:43;99038.41;;;5.84;100.00
65760;BME280;52496;51.082;5.066;2024-02-23T06:08:14;99033.09;;;5.84;100.00
65760;BME280;52496;51.082;5.066;2024-02-23T06:10:44;99033.94;;;5.85;100.00
65760;BME280;52496;51.082;5.066;2024-02-23T06:13:15;99025.13;;;5.84;100.00
65760;BME280;52496;51.082;5.066;2024-02-23T06:15:45;99020.84;;;5.83;100.00
65760;BME280;52496;51.082;5.066;2024-02-23T06:18:16;99024.53;;;5.82;100.00
65760;BME280;52496;51.082;5.066;2024-02-23T06:20:47;99035.75;;;5.84;100.00
65760;BME280;52496;51.082;5.066;2024-02-23T06:23:18;99033.09;;;5.84;100.00
65760;BME280;52496;51.082;5.066;2024-02-23T06:25:49;99027.78;;;5.84;100.00
65760;BME280;52496;51.082;5.066;2024-02-23T06:28:19;99030.44;;;5.84;100.00
65760;BME280;52496;51.082;5.066;2024-02-23T06:30:50;99032.09;;;5.85;100.00
65760;BME280;52496;51.082;5.066;2024-02-23T06:33:20;99023.31;;;5.85;100.00
65760;BME280;52496;51.082;5.066;2024-02-23T06:35:51;99032.91;;;5.86;100.00
65760;BME280;52496;51.082;5.066;2024-02-23T06:38:22;99026.78;;;5.85;100.00
65760;BME280;52496;51.082;5.066;2024-02-23T06:40:52;99011.47;;;5.87;100.00
65760;BME280;52496;51.082;5.066;2024-02-23T06:43:23;99013.13;;;5.88;100.00
65760;BME280;52496;51.082;5.066;2024-02-23T06:45:53;99023.75;;;5.88;100.00
65760;BME280;52496;51.082;5.066;2024-02-23T06:48:24;99019.25;;;5.89;100.00
65760;BME280;52496;51.082;5.066;2024-02-23T06:50:56;99024.38;;;5.90;100.00
65760;BME280;52496;51.082;5.066;2024-02-23T06:53:32;99033.97;;;5.91;100.00
65760;BME280;52496;51.082;5.066;2024-02-23T06:56:03;99030.28;;;5.92;100.00
65760;BME280;52496;51.082;5.066;2024-02-23T06:58:34;99021.34;;;5.93;100.00
65760;BME280;52496;51.082;5.066;2024-02-23T07:01:05;99024.59;;;5.95;100.00
65760;BME280;52496;51.082;5.066;2024-02-23T07:03:36;99022.56;;;5.97;100.00
65760;BME280;52496;51.082;5.066;2024-02-23T07:06:07;99007.69;;;5.96;100.00
65760;BME280;52496;51.082;5.066;2024-02-23T07:08:40;99014.22;;;6.01;100.00
65760;BME280;52496;51.082;5.066;2024-02-23T07:11:11;99027.09;;;6.04;100.00
65760;BME280;52496;51.082;5.066;2024-02-23T07:13:43;99022.19;;;6.07;100.00
65760;BME280;52496;51.082;5.066;2024-02-23T07:16:13;99030.38;;;6.12;100.00
65760;BME280;52496;51.082;5.066;2024-02-23T07:18:44;99023.88;;;6.15;100.00
65760;BME280;52496;51.082;5.066;2024-02-23T07:21:17;99018.16;;;6.18;100.00
65760;BME280;52496;51.082;5.066;2024-02-23T07:23:48;99027.53;;;6.20;100.00
65760;BME280;52496;51.082;5.066;2024-02-23T07:26:18;99016.50;;;6.24;100.00
65760;BME280;52496;51.082;5.066;2024-02-23T07:28:50;99009.59;;;6.29;100.00
65760;BME280;52496;51.082;5.066;2024-02-23T07:31:21;99024.13;;;6.33;100.00
65760;BME280;52496;51.082;5.066;2024-02-23T07:33:51;99012.06;;;6.37;100.00
65760;BME280;52496;51.082;5.066;2024-02-23T07:36:22;99007.97;;;6.41;100.00
65760;BME280;52496;51.082;5.066;2024-02-23T07:38:52;99017.19;;;6.46;100.00
65760;BME280;52496;51.082;5.066;2024-02-23T07:41:22;99014.94;;;6.49;100.00
65760;BME280;52496;51.082;5.066;2024-02-23T07:43:53;99009.00;;;6.54;100.00
65760;BME280;52496;51.082;5.066;2024-02-23T07:46:23;99011.25;;;6.57;100.00
65760;BME280;52496;51.082;5.066;2024-02-23T07:48:55;99007.19;;;6.61;100.00
65760;BME280;52496;51.082;5.066;2024-02-23T07:51:25;99008.41;;;6.65;100.00
65760;BME280;52496;51.082;5.066;2024-02-23T07:53:56;99020.66;;;6.66;100.00
65760;BME280;52496;51.082;5.066;2024-02-23T07:56:26;99004.72;;;6.66;100.00
65760;BME280;52496;51.082;5.066;2024-02-23T07:58:57;99018.63;;;6.68;100.00
65760;BME280;52496;51.082;5.066;2024-02-23T08:01:27;99016.19;;;6.73;100.00
65760;BME280;52496;51.082;5.066;2024-02-23T08:03:58;99026.41;;;6.76;100.00
65760;BME280;52496;51.082;5.066;2024-02-23T08:06:28;99006.78;;;6.77;100.00
65760;BME280;52496;51.082;5.066;2024-02-23T08:08:59;98998.22;;;6.82;100.00
65760;BME280;52496;51.082;5.066;2024-02-23T08:11:29;99005.13;;;6.89;100.00
65760;BME280;52496;51.082;5.066;2024-02-23T08:14:00;99006.56;;;6.99;100.00
65760;BME280;52496;51.082;5.066;2024-02-23T08:16:31;99000.00;;;7.08;100.00
65760;BME280;52496;51.082;5.066;2024-02-23T08:19:02;99005.72;;;7.11;100.00
65760;BME280;52496;51.082;5.066;2024-02-23T08:21:32;99024.13;;;7.13;100.00
65760;BME280;52496;51.082;5.066;2024-02-23T08:24:03;99006.31;;;7.20;100.00
65760;BME280;52496;51.082;5.066;2024-02-23T08:26:33;99014.09;;;7.28;100.00
65760;BME280;52496;51.082;5.066;2024-02-23T08:29:04;99000.38;;;7.31;100.00
65760;BME280;52496;51.082;5.066;2024-02-23T08:31:35;99001.41;;;7.30;100.00
65760;BME280;52496;51.082;5.066;2024-02-23T08:34:06;99007.56;;;7.31;100.00
65760;BME280;52496;51.082;5.066;2024-02-23T08:36:37;99000.38;;;7.31;100.00
65760;BME280;52496;51.082;5.066;2024-02-23T08:39:07;98990.78;;;7.30;100.00
65760;BME280;52496;51.082;5.066;2024-02-23T08:41:39;99001.22;;;7.25;100.00
65760;BME280;52496;51.082;5.066;2024-02-23T08:44:09;98997.75;;;7.25;100.00
65760;BME280;52496;51.082;5.066;2024-02-23T08:46:39;98998.97;;;7.29;100.00
65760;BME280;52496;51.082;5.066;2024-02-23T08:49:10;99003.44;;;7.35;100.00
65760;BME280;52496;51.082;5.066;2024-02-23T08:51:40;98999.75;;;7.43;100.00
65760;BME280;52496;51.082;5.066;2024-02-23T08:54:11;99003.81;;;7.52;100.00
65760;BME280;52496;51.082;5.066;2024-02-23T08:56:42;99001.94;;;7.59;100.00
65760;BME280;52496;51.082;5.066;2024-02-23T08:59:12;99003.94;;;7.64;100.00
65760;BME280;52496;51.082;5.066;2024-02-23T09:01:43;99026.25;;;7.69;100.00
65760;BME280;52496;51.082;5.066;2024-02-23T09:04:14;99017.41;;;7.75;100.00
65760;BME280;52496;51.082;5.066;2024-02-23T09:06:45;99030.72;;;7.75;100.00
65760;BME280;52496;51.082;5.066;2024-02-23T09:09:16;99020.34;;;7.67;100.00
65760;BME280;52496;51.082;5.066;2024-02-23T09:11:46;99024.25;;;7.58;100.00
65760;BME280;52496;51.082;5.066;2024-02-23T09:14:17;99033.91;;;7.46;100.00
65760;BME280;52496;51.082;5.066;2024-02-23T09:16:47;99018.97;;;7.45;100.00
65760;BME280;52496;51.082;5.066;2024-02-23T09:19:20;99032.03;;;7.53;100.00
65760;BME280;52496;51.082;5.066;2024-02-23T09:21:51;99019.34;;;7.55;100.00
65760;BME280;52496;51.082;5.066;2024-02-23T09:24:21;99020.13;;;7.62;100.00
65760;BME280;52496;51.082;5.066;2024-02-23T09:26:52;99027.91;;;7.70;100.00
65760;BME280;52496;51.082;5.066;2024-02-23T09:29:23;99027.47;;;7.73;100.00
65760;BME280;52496;51.082;5.066;2024-02-23T09:31:53;99021.75;;;7.76;100.00
65760;BME280;52496;51.082;5.066;2024-02-23T09:34:24;99020.09;;;7.75;100.00
65760;BME280;52496;51.082;5.066;2024-02-23T09:36:55;99018.06;;;7.71;100.00
65760;BME280;52496;51.082;5.066;2024-02-23T09:39:25;99023.41;;;7.64;100.00
65760;BME280;52496;51.082;5.066;2024-02-23T09:42:00;99028.34;;;7.54;100.00
65760;BME280;52496;51.082;5.066;2024-02-23T09:44:32;99021.84;;;7.43;100.00
65760;BME280;52496;51.082;5.066;2024-02-23T09:47:07;99032.69;;;7.35;100.00
65760;BME280;52496;51.082;5.066;2024-02-23T09:49:40;99043.53;;;7.27;100.00
65760;BME280;52496;51.082;5.066;2024-02-23T09:52:11;99039.25;;;7.26;100.00
65760;BME280;52496;51.082;5.066;2024-02-23T09:54:42;99033.31;;;7.24;100.00
65760;BME280;52496;51.082;5.066;2024-02-23T09:57:14;99050.91;;;7.25;100.00
65760;BME280;52496;51.082;5.066;2024-02-23T09:59:46;99056.63;;;7.28;100.00
65760;BME280;52496;51.082;5.066;2024-02-23T10:02:18;99042.31;;;7.29;100.00
65760;BME280;52496;51.082;5.066;2024-02-23T10:04:49;99044.16;;;7.29;100.00
65760;BME280;52496;51.082;5.066;2024-02-23T10:07:21;99045.97;;;7.35;100.00
65760;BME280;52496;51.082;5.066;2024-02-23T10:09:53;99046.78;;;7.49;100.00
65760;BME280;52496;51.082;5.066;2024-02-23T10:12:23;99038.75;;;7.62;100.00
65760;BME280;52496;51.082;5.066;2024-02-23T10:14:54;99052.00;;;7.75;100.00
65760;BME280;52496;51.082;5.066;2024-02-23T10:17:24;99029.03;;;7.88;100.00
65760;BME280;52496;51.082;5.066;2024-02-23T10:19:55;99039.47;;;7.96;100.00
65760;BME280;52496;51.082;5.066;2024-02-23T10:22:27;99047.78;;;8.06;100.00
65760;BME280;52496;51.082;5.066;2024-02-23T10:25:00;99041.19;;;8.15;100.00
65760;BME280;52496;51.082;5.066;2024-02-23T10:27:31;99042.59;;;8.24;100.00
65760;BME280;52496;51.082;5.066;2024-02-23T10:30:01;99036.81;;;8.41;100.00
65760;BME280;52496;51.082;5.066;2024-02-23T10:32:33;99034.22;;;8.59;100.00
65760;BME280;52496;51.082;5.066;2024-02-23T10:35:10;99034.97;;;8.66;100.00
65760;BME280;52496;51.082;5.066;2024-02-23T10:37:42;99043.34;;;8.70;100.00
65760;BME280;52496;51.082;5.066;2024-02-23T10:40:16;99047.63;;;8.78;100.00
65760;BME280;52496;51.082;5.066;2024-02-23T10:42:47;99054.69;;;8.90;100.00
65760;BME280;52496;51.082;5.066;2024-02-23T10:45:20;99067.38;;;8.95;100.00
65760;BME280;52496;51.082;5.066;2024-02-23T10:47:55;99063.00;;;9.01;100.00
65760;BME280;52496;51.082;5.066;2024-02-23T10:50:26;99079.84;;;9.01;100.00
65760;BME280;52496;51.082;5.066;2024-02-23T10:52:57;99066.09;;;8.98;100.00
65760;BME280;52496;51.082;5.066;2024-02-23T10:55:28;99079.25;;;8.99;100.00
65760;BME280;52496;51.082;5.066;2024-02-23T10:58:02;99065.53;;;8.95;100.00
65760;BME280;52496;51.082;5.066;2024-02-23T11:00:33;99072.28;;;8.98;100.00
65760;BME280;52496;51.082;5.066;2024-02-23T11:03:04;99062.66;;;9.22;100.00
65760;BME280;52496;51.082;5.066;2024-02-23T11:05:36;99053.41;;;9.43;100.00
65760;BME280;52496;51.082;5.066;2024-02-23T11:08:08;99047.94;;;9.56;100.00
65760;BME280;52496;51.082;5.066;2024-02-23T11:10:43;99057.28;;;9.65;100.00
65760;BME280;52496;51.082;5.066;2024-02-23T11:13:18;99051.50;;;9.69;100.00
65760;BME280;52496;51.082;5.066;2024-02-23T11:15:49;99059.63;;;9.74;100.00
65760;BME280;52496;51.082;5.066;2024-02-23T11:18:23;99055.50;;;9.78;100.00
65760;BME280;52496;51.082;5.066;2024-02-23T11:21:04;99054.16;;;9.87;100.00
65760;BME280;52496;51.082;5.066;2024-02-23T11:23:42;99060.91;;;9.90;100.00
65760;BME280;52496;51.082;5.066;2024-02-23T11:26:13;99059.97;;;9.84;100.00
65760;BME280;52496;51.082;5.066;2024-02-23T11:28:51;99065.28;;;9.84;100.00
65760;BME280;52496;51.082;5.066;2024-02-23T11:31:28;99070.34;;;9.92;100.00
65760;BME280;52496;51.082;5.066;2024-02-23T11:33:59;99063.69;;;9.83;100.00
65760;BME280;52496;51.082;5.066;2024-02-23T11:36:32;99065.22;;;9.91;100.00
65760;BME280;52496;51.082;5.066;2024-02-23T11:39:02;99069.56;;;10.03;100.00
65760;BME280;52496;51.082;5.066;2024-02-23T11:41:33;99069.00;;;10.01;100.00
65760;BME280;52496;51.082;5.066;2024-02-23T11:44:04;99078.28;;;9.99;100.00
65760;BME280;52496;51.082;5.066;2024-02-23T11:46:36;99092.50;;;9.93;100.00
65760;BME280;52496;51.082;5.066;2024-02-23T11:49:07;99091.38;;;9.82;100.00
65760;BME280;52496;51.082;5.066;2024-02-23T11:51:37;99088.06;;;9.68;100.00
65760;BME280;52496;51.082;5.066;2024-02-23T11:54:08;99091.44;;;9.57;100.00
65760;BME280;52496;51.082;5.066;2024-02-23T11:56:40;99077.13;;;9.51;100.00
65760;BME280;52496;51.082;5.066;2024-02-23T11:59:11;99102.19;;;9.50;100.00
65760;BME280;52496;51.082;5.066;2024-02-23T12:01:41;99089.28;;;9.47;100.00
65760;BME280;52496;51.082;5.066;2024-02-23T12:04:12;99101.28;;;9.38;100.00
65760;BME280;52496;51.082;5.066;2024-02-23T12:06:42;99091.31;;;9.27;100.00
65760;BME280;52496;51.082;5.066;2024-02-23T12:09:14;99092.13;;;9.27;100.00
65760;BME280;52496;51.082;5.066;2024-02-23T12:11:44;99094.59;;;9.29;100.00
65760;BME280;52496;51.082;5.066;2024-02-23T12:14:15;99098.44;;;9.33;100.00
65760;BME280;52496;51.082;5.066;2024-02-23T12:16:45;99087.59;;;9.28;100.00
65760;BME280;52496;51.082;5.066;2024-02-23T12:19:15;99100.19;;;9.21;100.00
65760;BME280;52496;51.082;5.066;2024-02-23T12:21:46;99106.41;;;9.14;100.00
65760;BME280;52496;51.082;5.066;2024-02-23T12:24:17;99094.75;;;9.09;100.00
65760;BME280;52496;51.082;5.066;2024-02-23T12:26:53;99097.78;;;9.12;100.00
65760;BME280;52496;51.082;5.066;2024-02-23T12:29:24;99093.81;;;9.22;100.00
65760;BME280;52496;51.082;5.066;2024-02-23T12:32:06;99096.84;;;9.50;100.00
65760;BME280;52496;51.082;5.066;2024-02-23T12:34:37;99088.78;;;9.75;100.00
65760;BME280;52496;51.082;5.066;2024-02-23T12:37:08;99086.56;;;9.91;100.00
65760;BME280;52496;51.082;5.066;2024-02-23T12:39:38;99088.16;;;9.98;100.00
65760;BME280;52496;51.082;5.066;2024-02-23T12:42:09;99082.94;;;10.03;100.00
65760;BME280;52496;51.082;5.066;2024-02-23T12:44:39;99090.50;;;10.06;100.00
65760;BME280;52496;51.082;5.066;2024-02-23T12:47:10;99085.16;;;10.06;100.00
65760;BME280;52496;51.082;5.066;2024-02-23T12:49:40;99083.09;;;10.08;100.00
65760;BME280;52496;51.082;5.066;2024-02-23T12:52:12;99097.47;;;10.07;100.00
65760;BME280;52496;51.082;5.066;2024-02-23T12:54:42;99094.22;;;10.05;100.00
65760;BME280;52496;51.082;5.066;2024-02-23T12:57:13;99095.03;;;10.06;100.00
65760;BME280;52496;51.082;5.066;2024-02-23T12:59:43;99085.16;;;10.06;100.00
65760;BME280;52496;51.082;5.066;2024-02-23T13:02:14;99097.94;;;10.04;100.00
65760;BME280;52496;51.082;5.066;2024-02-23T13:04:44;99091.31;;;10.07;100.00
65760;BME280;52496;51.082;5.066;2024-02-23T13:07:19;99096.72;;;10.19;100.00
65760;BME280;52496;51.082;5.066;2024-02-23T13:09:49;99094.19;;;10.24;100.00
65760;BME280;52496;51.082;5.066;2024-02-23T13:12:20;99099.28;;;10.25;100.00
65760;BME280;52496;51.082;5.066;2024-02-23T13:14:51;99099.53;;;10.24;100.00
65760;BME280;52496;51.082;5.066;2024-02-23T13:17:22;99098.38;;;10.20;100.00
65760;BME280;52496;51.082;5.066;2024-02-23T13:19:53;99096.59;;;10.14;100.00